createdAt,value
2022-08-30T00:01:24.549Z,63.75
2022-08-30T00:03:55.183Z,64.02
2022-08-30T00:06:25.122Z,64.10
2022-08-30T00:08:53.586Z,64.29
2022-08-30T00:11:24.887Z,64.36
2022-08-30T00:13:54.222Z,64.46
2022-08-30T00:16:23.435Z,64.30
2022-08-30T00:18:51.697Z,64.66
2022-08-30T00:21:19.850Z,63.74
2022-08-30T00:23:47.661Z,64.04
2022-08-30T00:26:15.457Z,64.94
2022-08-30T00:28:43.390Z,64.62
2022-08-30T00:31:11.445Z,63.71
2022-08-30T00:33:45.314Z,63.77
2022-08-30T00:36:13.695Z,63.87
2022-08-30T00:38:41.641Z,64.34
2022-08-30T00:41:09.935Z,64.70
2022-08-30T00:43:37.813Z,64.46
2022-08-30T00:46:08.755Z,64.79
2022-08-30T00:48:40.889Z,64.48
2022-08-30T00:51:11.617Z,65.97
2022-08-30T00:53:42.952Z,65.31
2022-08-30T00:56:11.584Z,65.41
2022-08-30T00:58:47.424Z,65.30
2022-08-30T01:01:15.494Z,64.91
2022-08-30T01:03:44.073Z,65.13
2022-08-30T01:06:17.677Z,65.75
2022-08-30T01:08:47.467Z,64.99
2022-08-30T01:11:20.414Z,65.16
2022-08-30T01:13:50.625Z,65.30
2022-08-30T01:16:19.431Z,64.27
2022-08-30T01:18:51.313Z,65.03
2022-08-30T01:21:31.282Z,64.88
2022-08-30T01:24:00.868Z,64.24
2022-08-30T01:26:30.430Z,64.92
2022-08-30T01:29:05.212Z,64.72
2022-08-30T01:31:37.203Z,64.44
2022-08-30T01:34:07.721Z,66.15
2022-08-30T01:36:37.744Z,66.02
2022-08-30T01:39:15.739Z,66.31
2022-08-30T01:41:43.766Z,66.48
2022-08-30T01:44:12.810Z,67.02
2022-08-30T01:46:45.849Z,67.62
2022-08-30T01:49:17.267Z,67.68
2022-08-30T01:51:46.949Z,67.51
2022-08-30T01:54:14.918Z,66.98
2022-08-30T01:56:42.712Z,66.82
2022-08-30T01:59:10.992Z,67.34
2022-08-30T02:01:40.115Z,66.97
2022-08-30T02:04:10.012Z,66.62
2022-08-30T02:06:39.526Z,67.41
2022-08-30T02:09:07.644Z,67.52
2022-08-30T02:11:35.425Z,67.68
2022-08-30T02:14:03.808Z,67.25
2022-08-30T02:16:32.361Z,67.39
2022-08-30T02:19:00.253Z,66.87
2022-08-30T02:21:31.414Z,67.25
2022-08-30T02:23:59.314Z,67.23
2022-08-30T02:26:27.320Z,67.73
2022-08-30T02:28:56.258Z,68.05
2022-08-30T02:31:27.049Z,68.67
2022-08-30T02:33:55.077Z,68.43
2022-08-30T02:36:23.629Z,68.56
2022-08-30T02:38:52.159Z,69.22
2022-08-30T02:41:21.043Z,69.36
2022-08-30T02:43:48.820Z,69.57
2022-08-30T02:46:18.174Z,71.10
2022-08-30T02:48:46.069Z,71.35
2022-08-30T02:51:14.603Z,69.78
2022-08-30T02:53:44.155Z,68.67
2022-08-30T02:56:14.180Z,67.18
2022-08-30T02:58:43.092Z,66.65
2022-08-30T03:01:14.265Z,65.47
2022-08-30T03:03:44.090Z,64.90
2022-08-30T03:06:12.342Z,64.09
2022-08-30T03:08:40.873Z,63.61
2022-08-30T03:11:08.914Z,63.56
2022-08-30T03:13:36.752Z,64.02
2022-08-30T03:16:04.575Z,63.24
2022-08-30T03:18:33.632Z,64.33
2022-08-30T03:21:01.580Z,64.40
2022-08-30T03:23:29.429Z,64.60
2022-08-30T03:25:57.555Z,65.01
2022-08-30T03:28:25.458Z,64.95
2022-08-30T03:30:53.612Z,65.16
2022-08-30T03:33:21.977Z,65.20
2022-08-30T03:35:49.836Z,64.67
2022-08-30T03:38:17.770Z,65.56
2022-08-30T03:40:45.646Z,66.11
2022-08-30T03:43:14.552Z,66.01
2022-08-30T03:45:44.978Z,66.30
2022-08-30T03:48:13.115Z,66.38
2022-08-30T03:50:40.992Z,67.31
2022-08-30T03:53:08.879Z,67.93
2022-08-30T03:55:36.913Z,67.32
2022-08-30T03:58:05.279Z,68.35
2022-08-30T04:00:33.098Z,68.22
2022-08-30T04:03:00.913Z,68.33
2022-08-30T04:05:29.119Z,68.41
2022-08-30T04:07:56.976Z,68.29
2022-08-30T04:10:24.812Z,68.18
2022-08-30T04:12:52.916Z,66.64
2022-08-30T04:15:20.954Z,65.80
2022-08-30T04:17:49.600Z,65.52
2022-08-30T04:20:17.582Z,65.04
2022-08-30T04:22:45.920Z,65.33
2022-08-30T04:25:15.527Z,65.04
2022-08-30T04:27:45.791Z,66.00
2022-08-30T04:30:15.713Z,65.01
2022-08-30T04:32:44.519Z,62.79
2022-08-30T04:35:13.469Z,63.80
2022-08-30T04:37:41.309Z,63.67
2022-08-30T04:40:10.026Z,63.82
2022-08-30T04:42:38.468Z,64.00
2022-08-30T04:45:10.884Z,64.94
2022-08-30T04:47:39.442Z,64.39
2022-08-30T04:50:09.348Z,63.74
2022-08-30T04:52:37.469Z,63.19
2022-08-30T04:55:06.982Z,64.21
2022-08-30T04:57:35.317Z,62.37
2022-08-30T05:00:06.124Z,60.52
2022-08-30T05:02:34.531Z,60.50
2022-08-30T05:05:22.551Z,59.86
2022-08-30T05:07:50.607Z,59.50
2022-08-30T05:10:20.011Z,59.95
2022-08-30T05:12:47.835Z,61.07
2022-08-30T05:15:15.747Z,60.87
2022-08-30T05:17:43.620Z,60.98
2022-08-30T05:20:12.783Z,61.19
2022-08-30T05:22:53.686Z,62.30
2022-08-30T05:25:27.116Z,61.41
2022-08-30T05:27:55.921Z,62.16
2022-08-30T05:30:26.230Z,62.02
2022-08-30T05:32:58.552Z,61.74
2022-08-30T05:35:27.064Z,62.89
2022-08-30T05:37:55.699Z,62.51
2022-08-30T05:40:24.214Z,63.15
2022-08-30T05:42:52.634Z,63.54
2022-08-30T05:45:20.875Z,63.71
2022-08-30T05:47:49.039Z,63.48
2022-08-30T05:50:17.281Z,62.16
2022-08-30T05:52:45.682Z,61.90
2022-08-30T05:55:14.014Z,61.16
2022-08-30T05:57:42.161Z,61.36
2022-08-30T06:00:14.258Z,62.16
2022-08-30T06:02:42.580Z,62.81
2022-08-30T06:05:14.323Z,61.57
2022-08-30T06:07:43.641Z,61.76
2022-08-30T06:10:12.674Z,62.67
2022-08-30T06:12:40.908Z,62.00
2022-08-30T06:15:09.214Z,61.85
2022-08-30T06:17:39.717Z,61.25
2022-08-30T06:20:08.588Z,60.21
2022-08-30T06:22:36.843Z,59.61
2022-08-30T06:25:05.789Z,60.00
2022-08-30T06:27:36.600Z,59.74
2022-08-30T06:30:08.394Z,60.20
2022-08-30T06:32:36.519Z,59.83
2022-08-30T06:35:06.405Z,59.59
2022-08-30T06:37:37.681Z,59.46
2022-08-30T06:40:06.055Z,59.29
2022-08-30T06:42:35.345Z,58.54
2022-08-30T06:45:10.728Z,58.57
2022-08-30T06:47:40.712Z,58.40
2022-08-30T06:50:11.125Z,57.82
2022-08-30T06:52:42.459Z,57.50
2022-08-30T06:55:13.192Z,57.33
2022-08-30T06:57:41.169Z,57.42
2022-08-30T07:00:11.437Z,57.08
2022-08-30T07:02:39.846Z,57.75
2022-08-30T07:05:09.043Z,57.76
2022-08-30T07:07:36.882Z,57.14
2022-08-30T07:10:06.930Z,56.45
2022-08-30T07:12:36.211Z,56.77
2022-08-30T07:15:05.934Z,56.98
2022-08-30T07:17:53.485Z,57.07
2022-08-30T07:20:21.782Z,56.94
2022-08-30T07:22:49.663Z,56.36
2022-08-30T07:25:17.550Z,57.07
2022-08-30T07:27:47.795Z,57.05
2022-08-30T07:30:15.817Z,56.46
2022-08-30T07:32:43.923Z,56.64
2022-08-30T07:35:11.805Z,56.52
2022-08-30T07:37:39.650Z,55.50
2022-08-30T07:40:08.214Z,55.51
2022-08-30T07:42:36.167Z,55.03
2022-08-30T07:45:04.493Z,53.46
2022-08-30T07:47:32.829Z,53.55
2022-08-30T07:50:00.990Z,53.10
2022-08-30T07:52:30.857Z,53.48
2022-08-30T07:55:00.316Z,53.21
2022-08-30T07:57:31.620Z,52.52
2022-08-30T07:59:59.983Z,53.24
2022-08-30T08:02:28.576Z,52.35
2022-08-30T08:04:56.489Z,52.79
2022-08-30T08:07:24.366Z,51.82
2022-08-30T08:09:52.265Z,50.34
2022-08-30T08:12:20.157Z,49.70
2022-08-30T08:14:48.034Z,48.51
2022-08-30T08:17:16.006Z,48.68
2022-08-30T08:19:43.791Z,47.16
2022-08-30T08:22:27.029Z,47.79
2022-08-30T08:25:00.134Z,48.49
2022-08-30T08:27:29.160Z,47.85
2022-08-30T08:29:57.059Z,47.50
2022-08-30T08:32:24.842Z,48.21
2022-08-30T08:34:52.689Z,48.06
2022-08-30T08:37:21.428Z,45.75
2022-08-30T08:39:55.899Z,46.75
2022-08-30T08:42:29.675Z,46.77
2022-08-30T08:45:11.240Z,45.52
2022-08-30T08:48:04.100Z,44.46
2022-08-30T08:50:32.531Z,45.49
2022-08-30T08:53:45.558Z,45.68
2022-08-30T08:56:19.718Z,45.87
2022-08-30T08:58:51.545Z,45.14
2022-08-30T09:01:23.574Z,45.34
2022-08-30T09:03:52.298Z,45.35
2022-08-30T09:06:23.706Z,46.11
2022-08-30T09:08:51.737Z,46.26
2022-08-30T09:11:28.170Z,45.13
2022-08-30T09:13:56.222Z,45.29
2022-08-30T09:16:46.409Z,45.25
2022-08-30T09:19:34.310Z,45.22
2022-08-30T09:22:14.545Z,44.78
2022-08-30T09:24:45.938Z,44.26
2022-08-30T09:27:25.717Z,44.57
2022-08-30T09:30:19.888Z,44.44
2022-08-30T09:33:05.777Z,43.87
2022-08-30T09:35:48.550Z,43.68
2022-08-30T09:38:24.223Z,45.03
2022-08-30T09:40:56.175Z,45.02
2022-08-30T09:43:34.755Z,44.85
2022-08-30T09:46:31.676Z,45.57
2022-08-30T09:49:00.939Z,44.92
2022-08-30T09:51:34.747Z,45.81
2022-08-30T09:54:24.348Z,45.35
2022-08-30T09:57:11.740Z,46.14
2022-08-30T09:59:57.870Z,47.06
2022-08-30T10:02:46.971Z,46.40
2022-08-30T10:05:25.737Z,45.72
2022-08-30T10:08:15.155Z,45.82
2022-08-30T10:11:13.619Z,45.44
2022-08-30T10:14:05.483Z,45.58
2022-08-30T10:16:47.444Z,45.23
2022-08-30T10:19:29.878Z,44.94
2022-08-30T10:22:13.660Z,44.71
2022-08-30T10:24:54.340Z,44.63
2022-08-30T10:27:38.576Z,43.63
2022-08-30T10:30:10.841Z,43.78
2022-08-30T10:33:00.431Z,44.99
2022-08-30T10:35:38.631Z,43.87
2022-08-30T10:38:17.303Z,43.67
2022-08-30T10:41:09.253Z,43.46
2022-08-30T10:43:39.203Z,43.63
2022-08-30T10:46:16.668Z,43.66
2022-08-30T10:48:47.489Z,43.53
2022-08-30T10:51:25.115Z,44.18
2022-08-30T10:54:30.438Z,43.51
2022-08-30T10:56:59.934Z,43.43
2022-08-30T10:59:29.163Z,43.76
2022-08-30T11:02:26.446Z,43.01
2022-08-30T11:05:51.115Z,42.34
2022-08-30T11:08:51.926Z,42.71
2022-08-30T11:11:41.824Z,41.46
2022-08-30T11:14:15.129Z,40.39
2022-08-30T11:16:51.865Z,40.27
2022-08-30T11:19:24.431Z,41.16
2022-08-30T11:22:14.389Z,41.64
2022-08-30T11:25:10.032Z,41.87
2022-08-30T11:27:44.368Z,42.20
2022-08-30T11:30:27.668Z,41.17
2022-08-30T11:33:07.980Z,42.11
2022-08-30T11:35:50.275Z,41.98
2022-08-30T11:38:26.217Z,41.49
2022-08-30T11:40:57.936Z,41.55
2022-08-30T11:43:46.039Z,41.91
2022-08-30T11:46:17.075Z,41.25
2022-08-30T11:48:55.450Z,40.67
2022-08-30T11:52:26.403Z,41.37
2022-08-30T11:55:12.734Z,41.90
2022-08-30T11:58:11.590Z,40.56
2022-08-30T12:00:51.487Z,41.05
2022-08-30T12:03:21.910Z,41.91
2022-08-30T12:06:20.923Z,41.53
2022-08-30T12:08:57.984Z,40.59
2022-08-30T12:11:36.622Z,41.04
2022-08-30T12:14:09.263Z,40.57
2022-08-30T12:17:03.398Z,40.21
2022-08-30T12:19:35.996Z,40.39
2022-08-30T12:22:17.336Z,40.24
2022-08-30T12:24:50.993Z,40.41
2022-08-30T12:27:25.706Z,39.42
2022-08-30T12:29:57.167Z,40.59
2022-08-30T12:32:28.646Z,39.82
2022-08-30T12:35:19.761Z,39.74
2022-08-30T12:37:58.764Z,39.66
2022-08-30T12:40:31.215Z,38.94
2022-08-30T12:43:01.980Z,39.77
2022-08-30T12:45:44.215Z,39.89
2022-08-30T12:48:16.156Z,39.08
2022-08-30T12:50:55.699Z,40.04
2022-08-30T12:53:38.319Z,39.67
2022-08-30T12:56:12.738Z,40.21
2022-08-30T12:58:46.897Z,41.16
2022-08-30T13:01:32.385Z,39.61
2022-08-30T13:04:14.020Z,40.81
2022-08-30T13:06:52.063Z,39.65
2022-08-30T13:09:41.477Z,39.51
2022-08-30T13:12:22.582Z,39.70
2022-08-30T13:14:52.520Z,39.39
2022-08-30T13:17:26.409Z,39.23
2022-08-30T13:20:07.341Z,39.44
2022-08-30T13:22:39.431Z,39.82
2022-08-30T13:25:09.557Z,39.47
2022-08-30T13:27:39.834Z,39.47
2022-08-30T13:30:16.342Z,40.28
2022-08-30T13:32:46.803Z,39.26
2022-08-30T13:35:14.680Z,39.33
2022-08-30T13:37:49.649Z,39.27
2022-08-30T13:40:23.729Z,40.60
2022-08-30T13:42:52.095Z,39.52
2022-08-30T13:48:10.943Z,39.74
2022-08-30T13:50:39.693Z,38.91
2022-08-30T13:53:09.459Z,40.06
2022-08-30T13:55:39.998Z,40.09
2022-08-30T13:58:08.715Z,40.38
2022-08-30T14:00:39.406Z,40.35
2022-08-30T14:03:09.892Z,39.61
2022-08-30T14:06:21.993Z,40.42
2022-08-30T14:08:48.864Z,40.64
2022-08-30T14:11:21.003Z,40.19
2022-08-30T14:16:41.510Z,40.07
2022-08-30T14:19:11.625Z,39.83
2022-08-30T14:21:40.028Z,40.41
2022-08-30T14:24:08.689Z,40.44
2022-08-30T14:26:45.955Z,40.26
2022-08-30T14:29:18.221Z,39.74
2022-08-30T14:31:46.958Z,40.26
2022-08-30T14:34:16.018Z,40.13
2022-08-30T14:36:46.107Z,40.45
2022-08-30T14:39:18.096Z,41.02
2022-08-30T14:41:50.939Z,40.72
2022-08-30T14:44:20.887Z,41.35
2022-08-30T14:46:51.023Z,43.10
2022-08-30T14:49:20.186Z,41.84
2022-08-30T14:51:48.835Z,42.21
2022-08-30T14:54:22.209Z,41.91
2022-08-30T14:56:50.164Z,42.96
2022-08-30T14:59:19.060Z,43.63
2022-08-30T15:01:49.378Z,42.78
2022-08-30T15:04:17.944Z,42.29
2022-08-30T15:06:52.364Z,43.18
2022-08-30T15:09:23.871Z,43.77
2022-08-30T15:11:55.327Z,43.53
2022-08-30T15:14:28.865Z,43.20
2022-08-30T15:16:58.691Z,43.64
2022-08-30T15:19:27.548Z,43.60
2022-08-30T15:22:04.348Z,42.46
2022-08-30T15:24:32.782Z,43.05
2022-08-30T15:27:01.410Z,43.00
2022-08-30T15:29:33.002Z,44.02
2022-08-30T15:32:03.668Z,43.05
2022-08-30T15:34:34.167Z,44.54
2022-08-30T15:37:05.283Z,44.20
2022-08-30T15:39:37.327Z,44.60
2022-08-30T15:42:05.462Z,44.51
2022-08-30T15:44:34.481Z,43.93
2022-08-30T15:47:03.968Z,44.34
2022-08-30T15:49:32.147Z,45.94
2022-08-30T15:52:01.909Z,45.84
2022-08-30T15:54:30.221Z,45.84
2022-08-30T15:57:01.604Z,45.41
2022-08-30T15:59:30.789Z,44.35
2022-08-30T16:01:59.399Z,44.80
2022-08-30T16:04:28.028Z,44.94
2022-08-30T16:06:56.190Z,45.59
2022-08-30T16:09:24.808Z,46.23
2022-08-30T16:11:54.726Z,46.09
2022-08-30T16:14:23.996Z,46.56
2022-08-30T16:16:55.512Z,47.68
2022-08-30T16:19:24.268Z,47.22
2022-08-30T16:21:53.321Z,47.55
2022-08-30T16:24:23.520Z,47.46
2022-08-30T16:26:53.342Z,47.91
2022-08-30T16:29:22.773Z,47.92
2022-08-30T16:31:51.589Z,48.28
2022-08-30T16:34:21.395Z,48.42
2022-08-30T16:36:49.479Z,47.76
2022-08-30T16:39:19.051Z,47.78
2022-08-30T16:41:48.876Z,48.53
2022-08-30T16:44:17.943Z,48.57
2022-08-30T16:46:53.456Z,47.66
2022-08-30T16:49:25.435Z,47.60
2022-08-30T16:51:54.889Z,48.54
2022-08-30T16:54:24.668Z,48.08
2022-08-30T16:56:53.479Z,47.55
2022-08-30T16:59:21.833Z,47.68
2022-08-30T17:01:49.744Z,48.00
2022-08-30T17:04:19.529Z,47.87
2022-08-30T17:06:51.028Z,47.87
2022-08-30T17:09:19.991Z,48.21
2022-08-30T17:11:48.241Z,47.88
2022-08-30T17:14:21.571Z,47.67
2022-08-30T17:17:05.261Z,47.81
2022-08-30T17:19:39.411Z,47.02
2022-08-30T17:22:12.874Z,47.61
2022-08-30T17:24:41.458Z,47.92
2022-08-30T17:27:11.700Z,50.97
2022-08-30T17:29:39.634Z,53.21
2022-08-30T17:32:07.585Z,55.10
2022-08-30T17:34:37.176Z,57.03
2022-08-30T17:37:05.421Z,56.26
2022-08-30T17:39:37.063Z,57.10
2022-08-30T17:42:05.168Z,57.27
2022-08-30T17:44:36.460Z,57.96
2022-08-30T17:47:04.775Z,58.26
2022-08-30T17:49:33.785Z,57.75
2022-08-30T17:52:05.506Z,57.99
2022-08-30T17:54:35.479Z,58.49
2022-08-30T17:59:55.644Z,57.90
2022-08-30T18:02:30.104Z,57.29
2022-08-30T18:05:15.017Z,56.96
2022-08-30T18:07:51.652Z,57.18
2022-08-30T18:10:19.732Z,57.38
2022-08-30T18:12:59.870Z,58.18
2022-08-30T18:15:28.688Z,57.70
2022-08-30T18:18:04.338Z,57.29
2022-08-30T18:20:32.994Z,58.49
2022-08-30T18:23:01.003Z,57.88
2022-08-30T18:25:28.996Z,58.31
2022-08-30T18:27:58.926Z,58.39
2022-08-30T18:30:34.009Z,57.81
2022-08-30T18:33:06.800Z,57.89
2022-08-30T18:35:34.852Z,57.35
2022-08-30T18:38:04.330Z,56.87
2022-08-30T18:40:32.173Z,56.48
2022-08-30T18:43:02.900Z,56.24
2022-08-30T18:45:30.785Z,56.34
2022-08-30T18:47:58.586Z,57.21
2022-08-30T18:50:28.159Z,57.52
2022-08-30T18:52:56.280Z,57.99
2022-08-30T18:55:27.844Z,57.64
2022-08-30T18:57:55.685Z,58.00
2022-08-30T19:00:24.819Z,58.51
2022-08-30T19:02:52.737Z,58.37
2022-08-30T19:05:22.578Z,58.86
2022-08-30T19:07:55.138Z,58.29
2022-08-30T19:10:25.687Z,58.13
2022-08-30T19:12:54.538Z,58.29
2022-08-30T19:15:23.169Z,58.80
2022-08-30T19:17:51.662Z,59.55
2022-08-30T19:20:22.461Z,58.90
2022-08-30T19:23:09.951Z,58.44
2022-08-30T19:25:43.216Z,59.17
2022-08-30T19:28:12.001Z,59.09
2022-08-30T19:30:40.342Z,59.13
2022-08-30T19:33:08.426Z,59.14
2022-08-30T19:35:39.747Z,58.80
2022-08-30T19:38:07.807Z,58.67
2022-08-30T19:40:35.797Z,59.05
2022-08-30T19:43:05.372Z,58.40
2022-08-30T19:45:34.088Z,58.64
2022-08-30T19:48:04.170Z,58.46
2022-08-30T19:50:32.248Z,58.58
2022-08-30T19:53:00.296Z,58.81
2022-08-30T19:55:30.111Z,58.18
2022-08-30T19:57:59.450Z,58.11
2022-08-30T20:00:30.673Z,58.42
2022-08-30T20:03:01.490Z,58.41
2022-08-30T20:05:30.752Z,59.07
2022-08-30T20:07:59.562Z,58.69
2022-08-30T20:10:27.838Z,59.14
2022-08-30T20:13:06.099Z,58.40
2022-08-30T20:15:37.871Z,59.16
2022-08-30T20:18:13.583Z,58.59
2022-08-30T20:20:49.535Z,58.84
2022-08-30T20:24:26.360Z,58.06
2022-08-30T20:26:10.261Z,58.06
2022-08-30T20:28:40.686Z,57.67
2022-08-30T20:31:11.292Z,57.00
2022-08-30T20:33:41.311Z,56.90
2022-08-30T20:36:11.701Z,57.79
2022-08-30T20:38:42.292Z,57.23
2022-08-30T20:41:16.881Z,55.70
2022-08-30T20:43:46.352Z,55.04
2022-08-30T20:46:16.993Z,54.68
2022-08-30T20:48:49.579Z,55.30
2022-08-30T20:51:20.198Z,55.61
2022-08-30T20:53:48.138Z,55.91
2022-08-30T20:56:19.982Z,56.06
2022-08-30T20:58:50.878Z,56.82
2022-08-30T21:01:19.813Z,57.01
2022-08-30T21:03:49.812Z,56.41
2022-08-30T21:06:18.502Z,56.65
2022-08-30T21:08:46.448Z,55.90
2022-08-30T21:11:16.820Z,55.35
2022-08-30T21:13:45.831Z,55.65
2022-08-30T21:16:16.478Z,55.11
2022-08-30T21:18:50.674Z,56.82
2022-08-30T21:21:22.957Z,57.66
2022-08-30T21:23:52.725Z,58.48
2022-08-30T21:26:21.305Z,60.10
2022-08-30T21:28:51.474Z,60.61
2022-08-30T21:31:25.324Z,62.73
2022-08-30T21:33:57.518Z,63.64
2022-08-30T21:36:45.914Z,64.01
2022-08-30T21:39:26.528Z,64.85
2022-08-30T21:41:57.095Z,64.58
2022-08-30T21:44:27.190Z,65.05
2022-08-30T21:46:55.110Z,64.89
2022-08-30T21:49:24.503Z,65.36
2022-08-30T21:51:54.711Z,66.42
2022-08-30T21:54:23.908Z,66.42
2022-08-30T21:56:54.418Z,66.29
2022-08-30T21:59:22.426Z,66.91
2022-08-30T22:01:50.461Z,67.12
2022-08-30T22:04:20.906Z,67.65
2022-08-30T22:06:52.725Z,67.55
2022-08-30T22:09:23.831Z,67.84
2022-08-30T22:11:59.230Z,68.04
2022-08-30T22:14:31.601Z,68.69
2022-08-30T22:17:01.118Z,68.02
2022-08-30T22:19:33.838Z,69.22
2022-08-30T22:22:02.046Z,69.36
2022-08-30T22:24:32.902Z,69.22
2022-08-30T22:27:02.532Z,69.06
2022-08-30T22:29:30.819Z,69.36
2022-08-30T22:31:59.533Z,69.25
2022-08-30T22:34:27.994Z,69.10
2022-08-30T22:36:55.984Z,69.64
2022-08-30T22:39:24.167Z,69.67
2022-08-30T22:41:52.367Z,69.83
2022-08-30T22:44:20.201Z,70.44
2022-08-30T22:46:48.087Z,70.13
2022-08-30T22:49:15.968Z,69.97
2022-08-30T22:51:44.138Z,70.47
2022-08-30T22:54:12.130Z,70.71
2022-08-30T22:56:40.404Z,70.50
2022-08-30T22:59:08.920Z,70.36
2022-08-30T23:01:43.186Z,70.61
2022-08-30T23:07:13.942Z,70.77
2022-08-30T23:09:41.802Z,70.92
2022-08-30T23:12:09.645Z,70.87
2022-08-30T23:14:41.103Z,70.79
2022-08-30T23:17:09.374Z,70.89
2022-08-30T23:19:37.410Z,70.89
2022-08-30T23:22:05.278Z,70.80
2022-08-30T23:24:51.764Z,71.70
2022-08-30T23:27:38.115Z,71.20
2022-08-30T23:30:25.890Z,70.85
2022-08-30T23:33:12.745Z,71.88
2022-08-30T23:35:59.337Z,73.24
2022-08-30T23:38:45.686Z,72.74
2022-08-30T23:41:34.047Z,72.85
2022-08-30T23:44:20.937Z,73.96
2022-08-30T23:47:07.945Z,74.17
2022-08-30T23:49:54.527Z,74.68
2022-08-30T23:52:41.220Z,75.00
2022-08-30T23:55:27.316Z,75.91
2022-08-30T23:58:13.864Z,74.92
